Time;durP1;ratioP1;P1;durP2;ratioP2;P2;SDS_P1;SDS_P2;PMS_P1;PMS_P2;Temp;Humidity;BMP_temperature;BMP_pressure;BME280_temperature;BME280_humidity;BME280_pressure;Samples;Min_cycle;Max_cycle;Signal;HPM_P1;HPM_P2
2021/12/24 16:42:09;;;;;;;15.20;5.07;;;;;;;;;;5069042;28;20457;-63
2021/12/24 16:44:35;;;;;;;17.65;4.25;;;;;;;;;;5067558;28;20044;-63
2021/12/24 16:47:02;;;;;;;16.52;4.50;;;;;;;;;;5053819;28;20053;-63
2021/12/24 16:49:28;;;;;;;14.07;3.40;;;;;;;;;;5050023;28;20025;-63
2021/12/24 16:51:54;;;;;;;9.32;2.67;;;;;;;;;;5046288;28;20024;-62
2021/12/24 16:54:21;;;;;;;12.35;1.85;;;;;;;;;;5051112;28;20025;-62
2021/12/24 16:56:47;;;;;;;18.35;3.08;;;;;;;;;;5047304;28;20395;-63
2021/12/24 16:59:18;;;;;;;13.10;2.70;;;;;;;;;;5051875;28;20467;-63
2021/12/24 17:01:44;;;;;;;12.00;2.92;;;;;;;;;;5067009;28;20033;-63
2021/12/24 17:04:11;;;;;;;13.57;2.70;;;;;;;;;;5065329;28;20073;-63
2021/12/24 17:06:37;;;;;;;6.32;1.95;;;;;;;;;;5054965;28;20033;-64
2021/12/24 17:09:03;;;;;;;16.38;2.63;;;;;;;;;;5046739;28;20029;-62
2021/12/24 17:11:31;;;;;;;9.10;2.03;;;;;;;;;;5050608;28;20276;-64
2021/12/24 17:13:57;;;;;;;10.88;1.88;;;;;;;;;;5052118;28;20021;-62
2021/12/24 17:16:23;;;;;;;13.27;2.60;;;;;;;;;;5048584;28;20405;-62
2021/12/24 17:18:49;;;;;;;9.05;4.30;;;;;;;;;;5046454;28;20455;-62
2021/12/24 17:21:15;;;;;;;17.55;5.82;;;;;;;;;;5046685;28;20025;-62
2021/12/24 17:23:43;;;;;;;18.75;5.05;;;;;;;;;;5049651;28;20025;-62
2021/12/24 17:26:09;;;;;;;15.70;6.13;;;;;;;;;;5053126;28;20112;-62
2021/12/24 17:28:35;;;;;;;23.70;11.23;;;;;;;;;;5047821;28;20043;-62
2021/12/24 17:31:01;;;;;;;16.92;8.43;;;;;;;;;;5054097;28;20128;-62
2021/12/24 17:33:27;;;;;;;20.08;7.38;;;;;;;;;;5060301;28;20029;-63
2021/12/24 17:35:53;;;;;;;12.43;4.45;;;;;;;;;;5049389;28;20028;-63
2021/12/24 17:38:20;;;;;;;12.13;4.65;;;;;;;;;;5052056;28;20536;-63
2021/12/24 17:40:48;;;;;;;15.90;5.20;;;;;;;;;;5054583;28;20510;-63
2021/12/24 17:43:14;;;;;;;16.20;4.10;;;;;;;;;;5046475;28;20021;-63
2021/12/24 17:45:40;;;;;;;13.05;3.28;;;;;;;;;;5049417;28;20064;-62
2021/12/24 17:48:07;;;;;;;9.13;3.58;;;;;;;;;;5061926;28;20036;-63
2021/12/24 17:50:33;;;;;;;14.85;3.97;;;;;;;;;;5046166;28;20040;-62
2021/12/24 17:52:59;;;;;;;10.82;2.85;;;;;;;;;;5036719;28;20101;-62
2021/12/24 17:55:25;;;;;;;9.45;3.13;;;;;;;;;;5034507;28;20025;-62
2021/12/24 17:57:51;;;;;;;10.13;3.05;;;;;;;;;;5033368;28;20034;-62
2021/12/24 18:00:18;;;;;;;14.20;2.88;;;;;;;;;;5032691;28;20470;-62
2021/12/24 18:02:44;;;;;;;16.50;3.75;;;;;;;;;;5028305;28;20036;-62
2021/12/24 18:05:11;;;;;;;9.40;2.35;;;;;;;;;;5026746;28;20160;-63
2021/12/24 18:07:37;;;;;;;7.25;2.00;;;;;;;;;;5019569;28;20026;-63
2021/12/24 18:10:04;;;;;;;13.70;2.65;;;;;;;;;;5015341;28;20025;-62
2021/12/24 18:12:31;;;;;;;10.32;2.65;;;;;;;;;;5012728;28;20491;-62
2021/12/24 18:14:58;;;;;;;10.77;2.70;;;;;;;;;;5052486;28;20033;-62
2021/12/24 18:17:24;;;;;;;15.00;2.80;;;;;;;;;;5045593;28;20109;-62
2021/12/24 18:19:50;;;;;;;14.80;3.38;;;;;;;;;;5033553;28;20039;-62
2021/12/24 18:22:16;;;;;;;12.90;3.30;;;;;;;;;;5046576;28;20029;-62
2021/12/24 18:24:42;;;;;;;18.40;3.42;;;;;;;;;;5032634;28;20494;-62
2021/12/24 18:27:09;;;;;;;13.95;3.67;;;;;;;;;;5032677;28;20515;-62
2021/12/24 18:29:35;;;;;;;9.15;4.57;;;;;;;;;;5032181;28;20022;-61
2021/12/24 18:32:01;;;;;;;10.45;3.42;;;;;;;;;;5032178;28;20036;-62
2021/12/24 18:34:27;;;;;;;9.98;3.78;;;;;;;;;;5031699;28;20029;-61
2021/12/24 18:36:53;;;;;;;17.52;4.15;;;;;;;;;;5041895;28;20111;-61
2021/12/24 18:39:19;;;;;;;14.88;3.50;;;;;;;;;;5039254;28;20052;-61
2021/12/24 18:41:45;;;;;;;14.40;3.92;;;;;;;;;;5035320;28;20058;-61
2021/12/24 18:44:12;;;;;;;15.80;3.03;;;;;;;;;;5032042;28;20025;-61
2021/12/24 18:46:38;;;;;;;14.15;2.67;;;;;;;;;;5037510;28;20017;-61
2021/12/24 18:49:04;;;;;;;20.42;4.07;;;;;;;;;;5050386;28;20021;-61
2021/12/24 18:51:30;;;;;;;24.50;4.25;;;;;;;;;;5052103;28;20028;-61
2021/12/24 18:53:56;;;;;;;11.93;4.03;;;;;;;;;;5052171;28;20623;-62
2021/12/24 18:56:22;;;;;;;17.83;4.60;;;;;;;;;;5046135;28;20072;-62
2021/12/24 18:58:48;;;;;;;21.70;4.45;;;;;;;;;;5045853;28;20487;-61
2021/12/24 19:01:17;;;;;;;17.75;6.18;;;;;;;;;;5029462;28;20038;-61
2021/12/24 19:03:43;;;;;;;21.15;6.53;;;;;;;;;;5023226;28;20018;-61
2021/12/24 19:06:10;;;;;;;21.05;8.48;;;;;;;;;;5045456;28;20018;-61
2021/12/24 19:08:36;;;;;;;23.88;8.90;;;;;;;;;;5031237;28;20029;-61
2021/12/24 19:11:02;;;;;;;23.33;9.85;;;;;;;;;;5048074;28;20032;-61
2021/12/24 19:13:28;;;;;;;14.55;4.78;;;;;;;;;;5029289;28;20504;-62
2021/12/24 19:15:54;;;;;;;24.67;8.15;;;;;;;;;;5024984;28;20492;-61
2021/12/24 19:18:21;;;;;;;23.20;5.82;;;;;;;;;;5030877;28;20026;-61
2021/12/24 19:20:47;;;;;;;12.35;5.47;;;;;;;;;;5032259;28;20041;-61
2021/12/24 19:23:13;;;;;;;18.48;6.40;;;;;;;;;;5024548;28;20407;-62
2021/12/24 19:25:39;;;;;;;13.70;5.35;;;;;;;;;;5027665;28;20045;-61
2021/12/24 19:28:06;;;;;;;11.02;4.28;;;;;;;;;;5012362;28;20358;-62
2021/12/24 19:30:34;;;;;;;13.77;5.15;;;;;;;;;;5021509;28;20034;-61
2021/12/24 19:33:00;;;;;;;13.25;3.17;;;;;;;;;;5036802;28;20522;-61
2021/12/24 19:35:26;;;;;;;18.10;3.45;;;;;;;;;;5043209;28;20472;-61
2021/12/24 19:37:52;;;;;;;17.73;3.03;;;;;;;;;;5037430;28;20046;-61
2021/12/24 19:40:21;;;;;;;12.10;2.90;;;;;;;;;;5025441;28;20136;-61
2021/12/24 19:42:47;;;;;;;11.38;2.85;;;;;;;;;;5030641;28;20022;-61
2021/12/24 19:45:13;;;;;;;16.38;3.30;;;;;;;;;;5012083;28;20022;-62
2021/12/24 19:47:39;;;;;;;15.02;3.17;;;;;;;;;;5012075;28;20493;-61
2021/12/24 19:50:06;;;;;;;14.25;3.20;;;;;;;;;;5011166;28;20026;-61
2021/12/24 19:52:32;;;;;;;10.05;3.72;;;;;;;;;;5011222;28;20388;-61
2021/12/24 19:54:58;;;;;;;22.55;5.82;;;;;;;;;;5011122;28;20583;-61
2021/12/24 19:57:25;;;;;;;30.02;7.50;;;;;;;;;;5019630;28;20033;-61
2021/12/24 19:59:51;;;;;;;19.00;6.65;;;;;;;;;;5029459;28;20056;-61
2021/12/24 20:02:17;;;;;;;25.92;6.13;;;;;;;;;;5029116;28;20025;-61
2021/12/24 20:04:43;;;;;;;21.08;4.28;;;;;;;;;;5047636;28;20035;-62
2021/12/24 20:07:09;;;;;;;16.88;3.22;;;;;;;;;;5045147;28;20373;-62
2021/12/24 20:09:35;;;;;;;13.20;3.25;;;;;;;;;;5029700;28;20026;-62
2021/12/24 20:12:06;;;;;;;17.02;3.95;;;;;;;;;;5027551;28;20036;-61
2021/12/24 20:14:32;;;;;;;10.45;4.80;;;;;;;;;;5028519;28;20025;-61
2021/12/24 20:16:58;;;;;;;14.45;5.35;;;;;;;;;;5030408;28;20546;-62
2021/12/24 20:19:24;;;;;;;12.43;4.65;;;;;;;;;;5030162;28;20392;-62
2021/12/24 20:21:50;;;;;;;15.40;4.70;;;;;;;;;;5030339;28;20480;-63
2021/12/24 20:24:16;;;;;;;19.85;5.20;;;;;;;;;;5027783;28;20468;-63
2021/12/24 20:26:42;;;;;;;18.73;3.33;;;;;;;;;;5029745;28;20120;-61
2021/12/24 20:29:08;;;;;;;12.77;2.67;;;;;;;;;;5011625;28;20080;-61
2021/12/24 20:31:35;;;;;;;12.90;4.50;;;;;;;;;;5036110;28;20025;-61
2021/12/24 20:34:01;;;;;;;17.73;3.22;;;;;;;;;;5047805;28;20029;-61
2021/12/24 20:36:28;;;;;;;13.60;2.92;;;;;;;;;;5043674;28;20049;-61
2021/12/24 20:38:54;;;;;;;12.43;2.53;;;;;;;;;;5029065;28;20391;-61
2021/12/24 20:41:20;;;;;;;9.85;2.10;;;;;;;;;;5029631;28;20053;-62
2021/12/24 20:43:46;;;;;;;18.88;2.88;;;;;;;;;;5025743;28;20465;-61
2021/12/24 20:46:12;;;;;;;14.30;2.58;;;;;;;;;;5021690;28;20025;-61
2021/12/24 20:48:38;;;;;;;13.23;1.80;;;;;;;;;;5030120;28;20025;-61
2021/12/24 20:51:05;;;;;;;13.75;3.40;;;;;;;;;;5029960;28;20040;-61
2021/12/24 20:53:31;;;;;;;18.45;3.33;;;;;;;;;;5029259;28;20029;-60
2021/12/24 20:55:57;;;;;;;20.70;4.55;;;;;;;;;;5017945;28;20088;-61
2021/12/24 20:58:24;;;;;;;16.92;2.35;;;;;;;;;;5016503;28;20025;-61
2021/12/24 21:00:50;;;;;;;17.00;2.60;;;;;;;;;;5049005;28;20029;-60
2021/12/24 21:03:16;;;;;;;24.10;4.63;;;;;;;;;;5029240;28;20036;-60
2021/12/24 21:05:42;;;;;;;16.92;3.65;;;;;;;;;;5028018;28;20388;-60
2021/12/24 21:08:09;;;;;;;17.08;2.83;;;;;;;;;;5029688;28;20049;-60
2021/12/24 21:10:35;;;;;;;18.75;4.13;;;;;;;;;;5028350;28;20554;-61
2021/12/24 21:13:01;;;;;;;17.13;4.00;;;;;;;;;;5031487;28;20412;-61
2021/12/24 21:15:27;;;;;;;17.95;3.58;;;;;;;;;;5028857;28;20025;-61
2021/12/24 21:17:53;;;;;;;18.30;4.72;;;;;;;;;;5035829;28;20037;-60
2021/12/24 21:20:19;;;;;;;17.38;4.03;;;;;;;;;;5029754;28;20392;-61
2021/12/24 21:22:46;;;;;;;22.77;4.03;;;;;;;;;;5029800;28;20101;-61
2021/12/24 21:25:14;;;;;;;15.98;4.50;;;;;;;;;;5029318;28;20017;-61
2021/12/24 21:27:40;;;;;;;14.98;3.45;;;;;;;;;;5031985;28;20419;-61
2021/12/24 21:30:07;;;;;;;15.68;3.50;;;;;;;;;;5036506;28;20083;-61
2021/12/24 21:32:33;;;;;;;20.10;5.57;;;;;;;;;;5031520;28;20389;-61
2021/12/24 21:34:59;;;;;;;16.23;5.35;;;;;;;;;;5052459;28;20476;-61
2021/12/24 21:37:25;;;;;;;14.18;3.75;;;;;;;;;;5051945;28;20036;-61
2021/12/24 21:39:51;;;;;;;17.55;4.28;;;;;;;;;;5048957;28;20033;-61
2021/12/24 21:42:17;;;;;;;11.80;3.58;;;;;;;;;;5047205;28;20037;-60
2021/12/24 21:44:43;;;;;;;19.73;3.58;;;;;;;;;;5039572;28;20022;-60
2021/12/24 21:47:10;;;;;;;16.17;4.18;;;;;;;;;;5017559;28;20025;-61
2021/12/24 21:49:36;;;;;;;15.02;2.47;;;;;;;;;;5035742;28;20059;-61
2021/12/24 21:52:02;;;;;;;21.40;4.22;;;;;;;;;;5033171;28;20021;-61
2021/12/24 21:54:29;;;;;;;14.65;2.53;;;;;;;;;;5033215;28;20389;-62
2021/12/24 21:56:55;;;;;;;17.38;3.05;;;;;;;;;;5033203;28;20030;-61
2021/12/24 21:59:22;;;;;;;16.75;2.53;;;;;;;;;;5032977;28;20112;-61
2021/12/24 22:01:48;;;;;;;18.20;2.92;;;;;;;;;;5033105;28;20469;-61
2021/12/24 22:09:31;;;;;;;21.42;3.85;;;;;;;;;;5040986;28;20040;-62
2021/12/24 22:11:57;;;;;;;15.07;2.55;;;;;;;;;;5021465;28;20036;-62
2021/12/24 22:14:23;;;;;;;14.20;2.13;;;;;;;;;;5032488;28;20052;-62
2021/12/24 22:16:49;;;;;;;13.82;2.28;;;;;;;;;;5024372;28;20068;-61
2021/12/24 22:19:16;;;;;;;16.35;2.45;;;;;;;;;;5029312;28;20037;-62
2021/12/24 22:21:52;;;;;;;13.00;2.65;;;;;;;;;;5031474;28;20077;-61
2021/12/24 22:24:18;;;;;;;12.30;1.95;;;;;;;;;;5032479;28;20025;-62
2021/12/24 22:26:44;;;;;;;15.73;3.03;;;;;;;;;;5033007;28;20045;-62
2021/12/24 22:29:19;;;;;;;10.70;2.47;;;;;;;;;;5061992;28;20487;-62
2021/12/24 22:31:45;;;;;;;12.88;2.38;;;;;;;;;;5052157;28;20025;-62
2021/12/24 22:34:11;;;;;;;15.27;2.95;;;;;;;;;;5052328;28;20033;-62
2021/12/24 22:36:37;;;;;;;14.70;2.58;;;;;;;;;;5039788;28;20036;-63
2021/12/24 22:39:04;;;;;;;16.23;2.70;;;;;;;;;;5038762;28;20220;-62
2021/12/24 22:41:30;;;;;;;19.23;2.47;;;;;;;;;;5028937;28;20046;-62
2021/12/24 22:43:56;;;;;;;8.18;2.47;;;;;;;;;;5015638;28;20054;-61
2021/12/24 22:46:22;;;;;;;13.25;2.08;;;;;;;;;;5012466;28;20425;-62
2021/12/24 22:48:48;;;;;;;11.23;1.98;;;;;;;;;;5014859;28;20112;-62
2021/12/24 22:51:14;;;;;;;14.98;2.30;;;;;;;;;;5018414;28;20099;-62
2021/12/24 22:53:40;;;;;;;15.90;2.72;;;;;;;;;;5028606;28;20527;-63
2021/12/24 22:56:07;;;;;;;13.60;1.92;;;;;;;;;;5012067;28;20029;-62
2021/12/24 22:58:33;;;;;;;14.30;2.05;;;;;;;;;;5013110;28;20065;-63
2021/12/24 23:01:00;;;;;;;13.20;2.50;;;;;;;;;;5031577;28;20030;-62
2021/12/24 23:03:30;;;;;;;11.65;1.92;;;;;;;;;;5028128;28;20163;-62
2021/12/24 23:05:56;;;;;;;15.18;3.10;;;;;;;;;;5027518;28;20037;-61
2021/12/24 23:08:25;;;;;;;12.80;1.98;;;;;;;;;;5011954;28;20014;-62
2021/12/24 23:10:53;;;;;;;10.38;3.10;;;;;;;;;;5024586;28;20511;-63
2021/12/24 23:13:20;;;;;;;7.07;1.48;;;;;;;;;;5029717;28;20021;-63
2021/12/24 23:15:49;;;;;;;11.77;1.95;;;;;;;;;;5031734;28;20021;-64
2021/12/24 23:18:21;;;;;;;13.43;2.25;;;;;;;;;;5022767;28;20060;-64
2021/12/24 23:20:47;;;;;;;11.80;1.92;;;;;;;;;;5031416;28;20022;-63
2021/12/24 23:23:14;;;;;;;19.25;2.22;;;;;;;;;;5034552;28;20025;-62
2021/12/24 23:25:40;;;;;;;16.02;3.08;;;;;;;;;;5029313;28;20587;-62
2021/12/24 23:28:07;;;;;;;16.40;2.10;;;;;;;;;;5026705;28;20400;-61
2021/12/24 23:30:34;;;;;;;12.70;1.85;;;;;;;;;;5031249;28;20022;-61
2021/12/24 23:33:00;;;;;;;11.00;2.28;;;;;;;;;;5031171;28;20038;-62
2021/12/24 23:35:26;;;;;;;7.82;1.95;;;;;;;;;;5027944;28;20065;-61
2021/12/24 23:37:52;;;;;;;17.23;2.30;;;;;;;;;;5015771;28;20032;-61
2021/12/24 23:40:18;;;;;;;22.00;3.15;;;;;;;;;;5013127;28;20457;-61
2021/12/24 23:42:45;;;;;;;16.48;2.83;;;;;;;;;;5027164;28;20032;-61
2021/12/24 23:47:52;;;;;;;18.90;3.13;;;;;;;;;;5030365;28;20049;-62
2021/12/24 23:50:18;;;;;;;14.05;2.28;;;;;;;;;;5030831;28;20491;-61
2021/12/24 23:52:49;;;;;;;15.60;2.45;;;;;;;;;;5029688;28;20049;-61
2021/12/24 23:55:15;;;;;;;18.77;3.50;;;;;;;;;;5030550;28;20345;-61
2021/12/24 23:57:42;;;;;;;16.48;3.30;;;;;;;;;;5030441;28;20373;-61
